sensor_id;sensor_type;location;lat;lon;timestamp;temperature;humidity
21259;DHT22;10787;53.364;-1.480;2024-02-26T00:01:21;4.70;99.90
21259;DHT22;10787;53.364;-1.480;2024-02-26T00:04:05;4.70;99.90
21259;DHT22;10787;53.364;-1.480;2024-02-26T00:06:50;4.70;99.90
21259;DHT22;10787;53.364;-1.480;2024-02-26T00:09:35;4.70;99.90
21259;DHT22;10787;53.364;-1.480;2024-02-26T00:12:21;4.60;99.90
21259;DHT22;10787;53.364;-1.480;2024-02-26T00:15:06;4.50;99.90
21259;DHT22;10787;53.364;-1.480;2024-02-26T00:17:50;4.40;99.90
21259;DHT22;10787;53.364;-1.480;2024-02-26T00:20:35;4.30;99.90
21259;DHT22;10787;53.364;-1.480;2024-02-26T00:23:20;4.30;99.90
21259;DHT22;10787;53.364;-1.480;2024-02-26T00:26:04;4.30;99.90
21259;DHT22;10787;53.364;-1.480;2024-02-26T00:28:49;4.30;99.90
21259;DHT22;10787;53.364;-1.480;2024-02-26T00:31:33;4.30;99.90
21259;DHT22;10787;53.364;-1.480;2024-02-26T00:34:17;4.40;99.90
21259;DHT22;10787;53.364;-1.480;2024-02-26T00:37:02;4.40;99.90
21259;DHT22;10787;53.364;-1.480;2024-02-26T00:39:46;4.50;99.90
21259;DHT22;10787;53.364;-1.480;2024-02-26T00:42:31;4.50;99.90
21259;DHT22;10787;53.364;-1.480;2024-02-26T00:45:15;4.50;99.90
21259;DHT22;10787;53.364;-1.480;2024-02-26T00:48:00;4.50;99.90
21259;DHT22;10787;53.364;-1.480;2024-02-26T00:50:53;4.50;99.90
21259;DHT22;10787;53.364;-1.480;2024-02-26T00:53:37;4.40;99.90
21259;DHT22;10787;53.364;-1.480;2024-02-26T00:56:22;4.30;99.90
21259;DHT22;10787;53.364;-1.480;2024-02-26T00:59:06;4.20;99.90
21259;DHT22;10787;53.364;-1.480;2024-02-26T01:01:50;4.10;99.90
21259;DHT22;10787;53.364;-1.480;2024-02-26T01:04:34;4.00;99.90
21259;DHT22;10787;53.364;-1.480;2024-02-26T01:07:19;3.90;99.90
21259;DHT22;10787;53.364;-1.480;2024-02-26T01:10:03;3.90;99.90
21259;DHT22;10787;53.364;-1.480;2024-02-26T01:12:48;3.80;99.90
21259;DHT22;10787;53.364;-1.480;2024-02-26T01:15:33;3.80;99.90
21259;DHT22;10787;53.364;-1.480;2024-02-26T01:18:17;3.80;99.90
21259;DHT22;10787;53.364;-1.480;2024-02-26T01:21:02;3.80;99.90
21259;DHT22;10787;53.364;-1.480;2024-02-26T01:23:48;3.80;99.90
21259;DHT22;10787;53.364;-1.480;2024-02-26T01:26:32;3.90;99.90
21259;DHT22;10787;53.364;-1.480;2024-02-26T01:29:16;3.90;99.90
21259;DHT22;10787;53.364;-1.480;2024-02-26T01:32:00;3.90;99.90
21259;DHT22;10787;53.364;-1.480;2024-02-26T01:34:45;3.80;99.90
21259;DHT22;10787;53.364;-1.480;2024-02-26T01:37:30;3.80;99.90
21259;DHT22;10787;53.364;-1.480;2024-02-26T01:40:14;3.80;99.90
21259;DHT22;10787;53.364;-1.480;2024-02-26T01:43:04;3.90;99.90
21259;DHT22;10787;53.364;-1.480;2024-02-26T01:45:48;4.00;99.90
21259;DHT22;10787;53.364;-1.480;2024-02-26T01:48:32;4.00;99.90
21259;DHT22;10787;53.364;-1.480;2024-02-26T01:51:16;4.00;99.90
21259;DHT22;10787;53.364;-1.480;2024-02-26T01:54:02;4.00;99.90
21259;DHT22;10787;53.364;-1.480;2024-02-26T01:56:49;3.90;99.90
21259;DHT22;10787;53.364;-1.480;2024-02-26T01:59:35;3.80;99.90
21259;DHT22;10787;53.364;-1.480;2024-02-26T02:02:20;3.70;99.90
21259;DHT22;10787;53.364;-1.480;2024-02-26T02:05:05;3.70;99.90
21259;DHT22;10787;53.364;-1.480;2024-02-26T02:07:50;3.60;99.90
21259;DHT22;10787;53.364;-1.480;2024-02-26T02:10:37;3.60;99.90
21259;DHT22;10787;53.364;-1.480;2024-02-26T02:13:22;3.50;99.90
21259;DHT22;10787;53.364;-1.480;2024-02-26T02:16:06;3.50;99.90
21259;DHT22;10787;53.364;-1.480;2024-02-26T02:18:51;3.50;99.90
21259;DHT22;10787;53.364;-1.480;2024-02-26T02:21:35;3.50;99.90
21259;DHT22;10787;53.364;-1.480;2024-02-26T02:24:19;3.50;99.90
21259;DHT22;10787;53.364;-1.480;2024-02-26T02:27:03;3.50;99.90
21259;DHT22;10787;53.364;-1.480;2024-02-26T02:29:48;3.40;99.90
21259;DHT22;10787;53.364;-1.480;2024-02-26T02:32:33;3.40;99.90
21259;DHT22;10787;53.364;-1.480;2024-02-26T02:35:18;3.40;99.90
21259;DHT22;10787;53.364;-1.480;2024-02-26T02:38:02;3.40;99.90
21259;DHT22;10787;53.364;-1.480;2024-02-26T02:40:46;3.40;99.90
21259;DHT22;10787;53.364;-1.480;2024-02-26T02:43:31;3.50;99.90
21259;DHT22;10787;53.364;-1.480;2024-02-26T02:46:15;3.60;99.90
21259;DHT22;10787;53.364;-1.480;2024-02-26T02:49:00;3.70;99.90
21259;DHT22;10787;53.364;-1.480;2024-02-26T02:51:44;3.80;99.90
21259;DHT22;10787;53.364;-1.480;2024-02-26T02:54:28;3.80;99.90
21259;DHT22;10787;53.364;-1.480;2024-02-26T02:57:12;3.80;99.90
21259;DHT22;10787;53.364;-1.480;2024-02-26T02:59:56;3.70;99.90
21259;DHT22;10787;53.364;-1.480;2024-02-26T03:02:40;3.70;99.90
21259;DHT22;10787;53.364;-1.480;2024-02-26T03:05:25;3.60;99.90
21259;DHT22;10787;53.364;-1.480;2024-02-26T03:08:09;3.50;99.90
21259;DHT22;10787;53.364;-1.480;2024-02-26T03:10:53;3.40;99.90
21259;DHT22;10787;53.364;-1.480;2024-02-26T03:13:38;3.40;99.90
21259;DHT22;10787;53.364;-1.480;2024-02-26T03:16:22;3.30;99.90
21259;DHT22;10787;53.364;-1.480;2024-02-26T03:19:07;3.30;99.90
21259;DHT22;10787;53.364;-1.480;2024-02-26T03:21:51;3.30;99.90
21259;DHT22;10787;53.364;-1.480;2024-02-26T03:24:36;3.20;99.90
21259;DHT22;10787;53.364;-1.480;2024-02-26T03:27:20;3.10;99.90
21259;DHT22;10787;53.364;-1.480;2024-02-26T03:30:04;3.10;99.90
21259;DHT22;10787;53.364;-1.480;2024-02-26T03:32:49;3.10;99.90
21259;DHT22;10787;53.364;-1.480;2024-02-26T03:35:33;3.00;99.90
21259;DHT22;10787;53.364;-1.480;2024-02-26T03:38:18;3.00;99.90
21259;DHT22;10787;53.364;-1.480;2024-02-26T03:41:02;3.00;99.90
21259;DHT22;10787;53.364;-1.480;2024-02-26T03:43:47;2.90;99.90
21259;DHT22;10787;53.364;-1.480;2024-02-26T03:46:31;2.90;99.90
21259;DHT22;10787;53.364;-1.480;2024-02-26T03:49:15;2.90;99.90
21259;DHT22;10787;53.364;-1.480;2024-02-26T03:52:00;2.90;99.90
21259;DHT22;10787;53.364;-1.480;2024-02-26T03:54:45;2.90;99.90
21259;DHT22;10787;53.364;-1.480;2024-02-26T03:57:29;2.90;99.90
21259;DHT22;10787;53.364;-1.480;2024-02-26T04:00:14;2.90;99.90
21259;DHT22;10787;53.364;-1.480;2024-02-26T04:02:58;3.00;99.90
21259;DHT22;10787;53.364;-1.480;2024-02-26T04:05:42;3.00;99.90
21259;DHT22;10787;53.364;-1.480;2024-02-26T04:08:26;3.10;99.90
21259;DHT22;10787;53.364;-1.480;2024-02-26T04:11:10;3.10;99.90
21259;DHT22;10787;53.364;-1.480;2024-02-26T04:13:54;3.10;99.90
21259;DHT22;10787;53.364;-1.480;2024-02-26T04:16:38;3.10;99.90
21259;DHT22;10787;53.364;-1.480;2024-02-26T04:19:23;3.10;99.90
21259;DHT22;10787;53.364;-1.480;2024-02-26T04:22:07;3.10;99.90
21259;DHT22;10787;53.364;-1.480;2024-02-26T04:24:51;3.20;99.90
21259;DHT22;10787;53.364;-1.480;2024-02-26T04:27:35;3.20;99.90
21259;DHT22;10787;53.364;-1.480;2024-02-26T04:30:19;3.20;99.90
21259;DHT22;10787;53.364;-1.480;2024-02-26T04:33:04;3.10;99.90
21259;DHT22;10787;53.364;-1.480;2024-02-26T04:35:49;3.10;99.90
21259;DHT22;10787;53.364;-1.480;2024-02-26T04:38:33;3.10;99.90
21259;DHT22;10787;53.364;-1.480;2024-02-26T04:41:18;3.00;99.90
21259;DHT22;10787;53.364;-1.480;2024-02-26T04:44:02;3.00;99.90
21259;DHT22;10787;53.364;-1.480;2024-02-26T04:46:47;3.00;99.90
21259;DHT22;10787;53.364;-1.480;2024-02-26T04:49:31;3.00;99.90
21259;DHT22;10787;53.364;-1.480;2024-02-26T04:52:15;3.00;99.90
21259;DHT22;10787;53.364;-1.480;2024-02-26T04:54:59;3.00;99.90
21259;DHT22;10787;53.364;-1.480;2024-02-26T04:57:44;3.00;99.90
21259;DHT22;10787;53.364;-1.480;2024-02-26T05:00:28;3.00;99.90
21259;DHT22;10787;53.364;-1.480;2024-02-26T05:03:13;3.10;99.90
21259;DHT22;10787;53.364;-1.480;2024-02-26T05:05:59;3.10;99.90
21259;DHT22;10787;53.364;-1.480;2024-02-26T05:08:45;3.10;99.90
21259;DHT22;10787;53.364;-1.480;2024-02-26T05:11:29;3.10;99.90
21259;DHT22;10787;53.364;-1.480;2024-02-26T05:14:14;3.20;99.90
21259;DHT22;10787;53.364;-1.480;2024-02-26T05:16:58;3.30;99.90
21259;DHT22;10787;53.364;-1.480;2024-02-26T05:19:42;3.50;99.90
21259;DHT22;10787;53.364;-1.480;2024-02-26T05:22:26;3.60;99.90
21259;DHT22;10787;53.364;-1.480;2024-02-26T05:25:10;3.70;99.90
21259;DHT22;10787;53.364;-1.480;2024-02-26T05:27:55;3.70;99.90
21259;DHT22;10787;53.364;-1.480;2024-02-26T05:30:39;3.80;99.90
21259;DHT22;10787;53.364;-1.480;2024-02-26T05:33:24;3.80;99.90
21259;DHT22;10787;53.364;-1.480;2024-02-26T05:36:09;3.90;99.90
21259;DHT22;10787;53.364;-1.480;2024-02-26T05:38:54;3.80;99.90
21259;DHT22;10787;53.364;-1.480;2024-02-26T05:41:38;3.80;99.90
21259;DHT22;10787;53.364;-1.480;2024-02-26T05:44:26;3.80;99.90
21259;DHT22;10787;53.364;-1.480;2024-02-26T05:47:10;3.70;99.90
21259;DHT22;10787;53.364;-1.480;2024-02-26T05:49:54;3.70;99.90
21259;DHT22;10787;53.364;-1.480;2024-02-26T05:52:39;3.80;99.90
21259;DHT22;10787;53.364;-1.480;2024-02-26T05:55:24;3.80;99.90
21259;DHT22;10787;53.364;-1.480;2024-02-26T05:58:09;3.80;99.90
21259;DHT22;10787;53.364;-1.480;2024-02-26T06:00:53;3.70;99.90
21259;DHT22;10787;53.364;-1.480;2024-02-26T06:03:37;3.70;99.90
21259;DHT22;10787;53.364;-1.480;2024-02-26T06:06:21;3.60;99.90
21259;DHT22;10787;53.364;-1.480;2024-02-26T06:09:07;3.50;99.90
21259;DHT22;10787;53.364;-1.480;2024-02-26T06:11:51;3.50;99.90
21259;DHT22;10787;53.364;-1.480;2024-02-26T06:14:36;3.50;99.90
21259;DHT22;10787;53.364;-1.480;2024-02-26T06:17:20;3.50;99.90
21259;DHT22;10787;53.364;-1.480;2024-02-26T06:20:05;3.50;99.90
21259;DHT22;10787;53.364;-1.480;2024-02-26T06:22:51;3.40;99.90
21259;DHT22;10787;53.364;-1.480;2024-02-26T06:25:35;3.40;99.90
21259;DHT22;10787;53.364;-1.480;2024-02-26T06:28:19;3.40;99.90
21259;DHT22;10787;53.364;-1.480;2024-02-26T06:31:04;3.50;99.90
21259;DHT22;10787;53.364;-1.480;2024-02-26T06:33:49;3.60;99.90
21259;DHT22;10787;53.364;-1.480;2024-02-26T06:36:34;3.60;99.90
21259;DHT22;10787;53.364;-1.480;2024-02-26T06:39:19;3.70;99.90
21259;DHT22;10787;53.364;-1.480;2024-02-26T06:42:03;3.80;99.90
21259;DHT22;10787;53.364;-1.480;2024-02-26T06:44:48;3.80;99.90
21259;DHT22;10787;53.364;-1.480;2024-02-26T06:47:32;3.80;99.90
21259;DHT22;10787;53.364;-1.480;2024-02-26T06:50:16;3.90;99.90
21259;DHT22;10787;53.364;-1.480;2024-02-26T06:53:01;4.20;99.90
21259;DHT22;10787;53.364;-1.480;2024-02-26T06:55:46;4.40;99.90
21259;DHT22;10787;53.364;-1.480;2024-02-26T06:58:30;4.50;99.90
21259;DHT22;10787;53.364;-1.480;2024-02-26T07:01:15;4.50;99.90
21259;DHT22;10787;53.364;-1.480;2024-02-26T07:03:59;4.50;99.90
21259;DHT22;10787;53.364;-1.480;2024-02-26T07:06:44;4.50;99.90
21259;DHT22;10787;53.364;-1.480;2024-02-26T07:09:30;4.50;99.90
21259;DHT22;10787;53.364;-1.480;2024-02-26T07:12:15;4.50;99.90
21259;DHT22;10787;53.364;-1.480;2024-02-26T07:15:00;4.50;99.90
21259;DHT22;10787;53.364;-1.480;2024-02-26T07:17:44;4.50;99.90
21259;DHT22;10787;53.364;-1.480;2024-02-26T07:20:31;4.40;99.90
21259;DHT22;10787;53.364;-1.480;2024-02-26T07:23:15;4.40;99.90
21259;DHT22;10787;53.364;-1.480;2024-02-26T07:26:00;4.30;99.90
21259;DHT22;10787;53.364;-1.480;2024-02-26T07:28:44;4.20;99.90
21259;DHT22;10787;53.364;-1.480;2024-02-26T07:31:29;4.30;99.90
21259;DHT22;10787;53.364;-1.480;2024-02-26T07:34:13;4.30;99.90
21259;DHT22;10787;53.364;-1.480;2024-02-26T07:36:57;4.40;99.90
21259;DHT22;10787;53.364;-1.480;2024-02-26T07:39:41;4.40;99.90
21259;DHT22;10787;53.364;-1.480;2024-02-26T07:42:26;4.50;99.90
21259;DHT22;10787;53.364;-1.480;2024-02-26T07:45:10;4.60;99.90
21259;DHT22;10787;53.364;-1.480;2024-02-26T07:47:55;4.60;99.90
21259;DHT22;10787;53.364;-1.480;2024-02-26T07:50:39;4.60;99.90
21259;DHT22;10787;53.364;-1.480;2024-02-26T07:53:24;4.60;99.90
21259;DHT22;10787;53.364;-1.480;2024-02-26T07:56:09;4.60;99.90
21259;DHT22;10787;53.364;-1.480;2024-02-26T07:58:53;4.70;99.90
21259;DHT22;10787;53.364;-1.480;2024-02-26T08:01:37;4.70;99.90
21259;DHT22;10787;53.364;-1.480;2024-02-26T08:04:23;4.70;99.90
21259;DHT22;10787;53.364;-1.480;2024-02-26T08:07:07;4.80;99.90
21259;DHT22;10787;53.364;-1.480;2024-02-26T08:09:52;4.90;99.90
21259;DHT22;10787;53.364;-1.480;2024-02-26T08:12:36;4.90;99.90
21259;DHT22;10787;53.364;-1.480;2024-02-26T08:15:20;5.00;99.90
21259;DHT22;10787;53.364;-1.480;2024-02-26T08:18:05;5.00;99.90
21259;DHT22;10787;53.364;-1.480;2024-02-26T08:20:50;5.10;99.90
21259;DHT22;10787;53.364;-1.480;2024-02-26T08:23:34;5.10;99.90
21259;DHT22;10787;53.364;-1.480;2024-02-26T08:26:18;5.20;99.90
21259;DHT22;10787;53.364;-1.480;2024-02-26T08:29:04;5.20;99.90
21259;DHT22;10787;53.364;-1.480;2024-02-26T08:31:48;5.10;99.90
21259;DHT22;10787;53.364;-1.480;2024-02-26T08:34:35;5.10;99.90
21259;DHT22;10787;53.364;-1.480;2024-02-26T08:37:19;5.00;99.90
21259;DHT22;10787;53.364;-1.480;2024-02-26T08:40:04;5.00;99.90
21259;DHT22;10787;53.364;-1.480;2024-02-26T08:42:49;4.90;99.90
21259;DHT22;10787;53.364;-1.480;2024-02-26T08:45:33;4.90;99.90
21259;DHT22;10787;53.364;-1.480;2024-02-26T08:48:18;4.80;99.90
21259;DHT22;10787;53.364;-1.480;2024-02-26T08:51:08;4.80;99.90
21259;DHT22;10787;53.364;-1.480;2024-02-26T08:53:52;4.70;99.90
21259;DHT22;10787;53.364;-1.480;2024-02-26T08:56:37;4.80;99.90
21259;DHT22;10787;53.364;-1.480;2024-02-26T08:59:22;4.90;99.90
21259;DHT22;10787;53.364;-1.480;2024-02-26T09:02:08;5.00;99.90
21259;DHT22;10787;53.364;-1.480;2024-02-26T09:04:53;5.00;99.90
21259;DHT22;10787;53.364;-1.480;2024-02-26T09:07:38;5.20;99.90
21259;DHT22;10787;53.364;-1.480;2024-02-26T09:10:23;5.30;99.90
21259;DHT22;10787;53.364;-1.480;2024-02-26T09:13:07;5.40;99.90
21259;DHT22;10787;53.364;-1.480;2024-02-26T09:15:51;5.40;99.90
21259;DHT22;10787;53.364;-1.480;2024-02-26T09:18:35;5.50;99.90
21259;DHT22;10787;53.364;-1.480;2024-02-26T09:21:19;5.70;99.90
21259;DHT22;10787;53.364;-1.480;2024-02-26T09:24:07;5.80;99.90
21259;DHT22;10787;53.364;-1.480;2024-02-26T09:26:51;5.90;99.90
21259;DHT22;10787;53.364;-1.480;2024-02-26T09:29:35;6.00;99.90
21259;DHT22;10787;53.364;-1.480;2024-02-26T09:32:20;6.10;99.90
21259;DHT22;10787;53.364;-1.480;2024-02-26T09:35:05;6.20;99.90
21259;DHT22;10787;53.364;-1.480;2024-02-26T09:37:49;6.40;99.90
21259;DHT22;10787;53.364;-1.480;2024-02-26T09:40:34;6.60;99.90
21259;DHT22;10787;53.364;-1.480;2024-02-26T09:43:22;6.70;99.90
21259;DHT22;10787;53.364;-1.480;2024-02-26T09:46:09;6.80;99.90
21259;DHT22;10787;53.364;-1.480;2024-02-26T09:48:54;6.80;99.90
21259;DHT22;10787;53.364;-1.480;2024-02-26T09:51:39;6.80;99.90
21259;DHT22;10787;53.364;-1.480;2024-02-26T09:54:24;6.80;99.90
21259;DHT22;10787;53.364;-1.480;2024-02-26T09:57:12;6.80;99.90
21259;DHT22;10787;53.364;-1.480;2024-02-26T10:00:02;6.80;99.90
21259;DHT22;10787;53.364;-1.480;2024-02-26T10:02:50;6.90;99.90
21259;DHT22;10787;53.364;-1.480;2024-02-26T10:05:35;7.00;99.90
21259;DHT22;10787;53.364;-1.480;2024-02-26T10:08:22;7.10;99.90
21259;DHT22;10787;53.364;-1.480;2024-02-26T10:11:10;7.20;99.90
21259;DHT22;10787;53.364;-1.480;2024-02-26T10:13:55;7.30;99.90
21259;DHT22;10787;53.364;-1.480;2024-02-26T10:16:39;7.40;99.90
21259;DHT22;10787;53.364;-1.480;2024-02-26T10:19:28;7.40;99.90
21259;DHT22;10787;53.364;-1.480;2024-02-26T10:22:13;7.40;99.90
21259;DHT22;10787;53.364;-1.480;2024-02-26T10:24:58;7.40;99.90
21259;DHT22;10787;53.364;-1.480;2024-02-26T10:27:42;7.40;99.90
21259;DHT22;10787;53.364;-1.480;2024-02-26T10:30:27;7.50;99.90
21259;DHT22;10787;53.364;-1.480;2024-02-26T10:33:12;7.70;99.90
21259;DHT22;10787;53.364;-1.480;2024-02-26T10:36:00;8.00;99.90
21259;DHT22;10787;53.364;-1.480;2024-02-26T10:38:44;8.20;99.90
21259;DHT22;10787;53.364;-1.480;2024-02-26T10:41:28;8.20;99.90
21259;DHT22;10787;53.364;-1.480;2024-02-26T10:44:12;8.20;99.90
21259;DHT22;10787;53.364;-1.480;2024-02-26T10:46:57;8.20;99.90
21259;DHT22;10787;53.364;-1.480;2024-02-26T10:49:48;8.20;99.90
21259;DHT22;10787;53.364;-1.480;2024-02-26T10:52:34;8.20;99.90
21259;DHT22;10787;53.364;-1.480;2024-02-26T10:55:20;8.20;99.90
21259;DHT22;10787;53.364;-1.480;2024-02-26T10:58:07;8.10;99.90
21259;DHT22;10787;53.364;-1.480;2024-02-26T11:00:52;8.10;99.90
21259;DHT22;10787;53.364;-1.480;2024-02-26T11:03:38;7.90;99.90
21259;DHT22;10787;53.364;-1.480;2024-02-26T11:06:23;7.90;99.90
21259;DHT22;10787;53.364;-1.480;2024-02-26T11:09:12;7.90;99.90
21259;DHT22;10787;53.364;-1.480;2024-02-26T11:12:00;8.10;99.90
21259;DHT22;10787;53.364;-1.480;2024-02-26T11:14:46;8.20;99.90
21259;DHT22;10787;53.364;-1.480;2024-02-26T11:17:31;8.30;99.90
21259;DHT22;10787;53.364;-1.480;2024-02-26T11:20:17;8.30;99.90
21259;DHT22;10787;53.364;-1.480;2024-02-26T11:23:03;8.50;99.90
21259;DHT22;10787;53.364;-1.480;2024-02-26T11:25:49;8.50;99.90
21259;DHT22;10787;53.364;-1.480;2024-02-26T11:28:35;8.40;99.90
21259;DHT22;10787;53.364;-1.480;2024-02-26T11:31:20;8.30;99.90
21259;DHT22;10787;53.364;-1.480;2024-02-26T11:34:11;8.30;99.90
21259;DHT22;10787;53.364;-1.480;2024-02-26T11:36:56;8.40;99.90
21259;DHT22;10787;53.364;-1.480;2024-02-26T11:39:41;8.60;99.90
21259;DHT22;10787;53.364;-1.480;2024-02-26T11:42:26;8.80;99.90
21259;DHT22;10787;53.364;-1.480;2024-02-26T11:48:24;9.10;99.90
21259;DHT22;10787;53.364;-1.480;2024-02-26T11:51:10;9.20;99.90
21259;DHT22;10787;53.364;-1.480;2024-02-26T11:53:54;9.40;99.90
21259;DHT22;10787;53.364;-1.480;2024-02-26T11:56:41;9.40;99.90
21259;DHT22;10787;53.364;-1.480;2024-02-26T11:59:38;9.60;99.90
21259;DHT22;10787;53.364;-1.480;2024-02-26T12:05:33;9.60;99.90
21259;DHT22;10787;53.364;-1.480;2024-02-26T12:08:21;9.30;99.90
21259;DHT22;10787;53.364;-1.480;2024-02-26T12:11:14;9.20;99.90
21259;DHT22;10787;53.364;-1.480;2024-02-26T12:14:00;9.10;99.90
21259;DHT22;10787;53.364;-1.480;2024-02-26T12:16:44;8.90;99.90
21259;DHT22;10787;53.364;-1.480;2024-02-26T12:19:30;9.30;99.90
21259;DHT22;10787;53.364;-1.480;2024-02-26T12:22:15;10.20;99.90
21259;DHT22;10787;53.364;-1.480;2024-02-26T12:24:59;11.00;99.90
21259;DHT22;10787;53.364;-1.480;2024-02-26T12:27:45;11.10;99.90
21259;DHT22;10787;53.364;-1.480;2024-02-26T12:30:31;11.60;99.90
21259;DHT22;10787;53.364;-1.480;2024-02-26T12:33:15;12.10;99.90
21259;DHT22;10787;53.364;-1.480;2024-02-26T12:36:00;11.90;99.90
21259;DHT22;10787;53.364;-1.480;2024-02-26T12:38:44;11.40;99.90
21259;DHT22;10787;53.364;-1.480;2024-02-26T12:41:28;10.70;99.90
21259;DHT22;10787;53.364;-1.480;2024-02-26T12:44:24;10.10;99.90
21259;DHT22;10787;53.364;-1.480;2024-02-26T12:47:09;9.80;99.90
21259;DHT22;10787;53.364;-1.480;2024-02-26T12:49:57;9.50;99.90
21259;DHT22;10787;53.364;-1.480;2024-02-26T12:52:44;9.70;99.90
21259;DHT22;10787;53.364;-1.480;2024-02-26T12:55:29;9.90;99.90
21259;DHT22;10787;53.364;-1.480;2024-02-26T12:58:15;10.10;99.90
21259;DHT22;10787;53.364;-1.480;2024-02-26T13:00:59;11.10;99.90
21259;DHT22;10787;53.364;-1.480;2024-02-26T13:03:44;13.00;99.90
21259;DHT22;10787;53.364;-1.480;2024-02-26T13:06:29;13.20;99.90
21259;DHT22;10787;53.364;-1.480;2024-02-26T13:09:14;13.10;99.90
21259;DHT22;10787;53.364;-1.480;2024-02-26T13:11:58;12.60;99.90
21259;DHT22;10787;53.364;-1.480;2024-02-26T13:14:44;12.00;99.90
21259;DHT22;10787;53.364;-1.480;2024-02-26T13:17:31;11.40;99.90
21259;DHT22;10787;53.364;-1.480;2024-02-26T13:20:29;10.80;99.90
21259;DHT22;10787;53.364;-1.480;2024-02-26T13:23:13;10.30;99.90
21259;DHT22;10787;53.364;-1.480;2024-02-26T13:25:58;10.80;99.90
21259;DHT22;10787;53.364;-1.480;2024-02-26T13:28:43;12.50;99.90
21259;DHT22;10787;53.364;-1.480;2024-02-26T13:31:27;14.30;99.90
21259;DHT22;10787;53.364;-1.480;2024-02-26T13:34:23;15.70;99.90
21259;DHT22;10787;53.364;-1.480;2024-02-26T13:37:09;17.20;99.90
21259;DHT22;10787;53.364;-1.480;2024-02-26T13:39:53;18.60;99.90
21259;DHT22;10787;53.364;-1.480;2024-02-26T13:42:38;18.90;99.90
21259;DHT22;10787;53.364;-1.480;2024-02-26T13:45:22;17.80;99.90
21259;DHT22;10787;53.364;-1.480;2024-02-26T13:48:08;15.70;99.90
21259;DHT22;10787;53.364;-1.480;2024-02-26T13:50:54;14.20;99.90
21259;DHT22;10787;53.364;-1.480;2024-02-26T13:53:38;13.10;99.90
21259;DHT22;10787;53.364;-1.480;2024-02-26T13:56:22;12.40;99.90
21259;DHT22;10787;53.364;-1.480;2024-02-26T13:59:06;12.40;99.90
21259;DHT22;10787;53.364;-1.480;2024-02-26T14:01:50;13.40;99.90
21259;DHT22;10787;53.364;-1.480;2024-02-26T14:04:37;14.10;99.90
21259;DHT22;10787;53.364;-1.480;2024-02-26T14:07:22;14.00;99.90
21259;DHT22;10787;53.364;-1.480;2024-02-26T14:10:07;13.60;99.90
21259;DHT22;10787;53.364;-1.480;2024-02-26T14:12:52;14.40;99.90
21259;DHT22;10787;53.364;-1.480;2024-02-26T14:15:37;15.40;99.90
21259;DHT22;10787;53.364;-1.480;2024-02-26T14:18:23;16.00;99.90
21259;DHT22;10787;53.364;-1.480;2024-02-26T14:21:07;15.20;99.90
21259;DHT22;10787;53.364;-1.480;2024-02-26T14:23:51;14.70;99.90
21259;DHT22;10787;53.364;-1.480;2024-02-26T14:26:36;14.90;99.90
21259;DHT22;10787;53.364;-1.480;2024-02-26T14:29:21;15.40;99.90
21259;DHT22;10787;53.364;-1.480;2024-02-26T14:32:05;15.30;99.90
21259;DHT22;10787;53.364;-1.480;2024-02-26T14:34:49;14.70;99.90
21259;DHT22;10787;53.364;-1.480;2024-02-26T14:37:34;15.30;99.90
21259;DHT22;10787;53.364;-1.480;2024-02-26T14:40:18;14.90;99.90
21259;DHT22;10787;53.364;-1.480;2024-02-26T14:43:03;14.00;99.90
21259;DHT22;10787;53.364;-1.480;2024-02-26T14:45:49;13.10;99.90
21259;DHT22;10787;53.364;-1.480;2024-02-26T14:48:33;12.60;99.90
21259;DHT22;10787;53.364;-1.480;2024-02-26T14:51:18;12.00;99.90
21259;DHT22;10787;53.364;-1.480;2024-02-26T14:54:02;11.80;99.90
21259;DHT22;10787;53.364;-1.480;2024-02-26T14:56:47;11.80;99.90
21259;DHT22;10787;53.364;-1.480;2024-02-26T14:59:33;12.00;99.90
21259;DHT22;10787;53.364;-1.480;2024-02-26T15:02:17;11.80;99.90
21259;DHT22;10787;53.364;-1.480;2024-02-26T15:05:02;11.60;99.90
21259;DHT22;10787;53.364;-1.480;2024-02-26T15:07:47;11.40;99.90
21259;DHT22;10787;53.364;-1.480;2024-02-26T15:10:31;11.50;99.90
21259;DHT22;10787;53.364;-1.480;2024-02-26T15:13:15;11.80;99.90
21259;DHT22;10787;53.364;-1.480;2024-02-26T15:16:00;11.70;99.90
21259;DHT22;10787;53.364;-1.480;2024-02-26T15:18:44;11.70;99.90
21259;DHT22;10787;53.364;-1.480;2024-02-26T15:21:29;12.80;99.90
21259;DHT22;10787;53.364;-1.480;2024-02-26T15:24:13;12.80;99.90
21259;DHT22;10787;53.364;-1.480;2024-02-26T15:27:00;11.90;99.90
21259;DHT22;10787;53.364;-1.480;2024-02-26T15:29:44;11.10;99.90
21259;DHT22;10787;53.364;-1.480;2024-02-26T15:32:28;10.30;99.90
21259;DHT22;10787;53.364;-1.480;2024-02-26T15:35:13;9.90;99.90
21259;DHT22;10787;53.364;-1.480;2024-02-26T15:37:57;10.20;99.90
21259;DHT22;10787;53.364;-1.480;2024-02-26T15:40:41;11.80;99.90
21259;DHT22;10787;53.364;-1.480;2024-02-26T15:43:26;13.70;99.90
21259;DHT22;10787;53.364;-1.480;2024-02-26T15:46:10;15.40;99.90
21259;DHT22;10787;53.364;-1.480;2024-02-26T15:48:57;16.00;99.90
21259;DHT22;10787;53.364;-1.480;2024-02-26T15:51:42;15.60;99.90
21259;DHT22;10787;53.364;-1.480;2024-02-26T15:54:27;14.70;99.90
21259;DHT22;10787;53.364;-1.480;2024-02-26T15:57:14;13.70;99.90
21259;DHT22;10787;53.364;-1.480;2024-02-26T16:00:00;13.50;99.90
21259;DHT22;10787;53.364;-1.480;2024-02-26T16:02:47;13.20;99.90
21259;DHT22;10787;53.364;-1.480;2024-02-26T16:05:33;12.70;99.90
21259;DHT22;10787;53.364;-1.480;2024-02-26T16:08:20;12.30;99.90
21259;DHT22;10787;53.364;-1.480;2024-02-26T16:11:05;12.10;99.90
21259;DHT22;10787;53.364;-1.480;2024-02-26T16:14:02;11.80;99.90
21259;DHT22;10787;53.364;-1.480;2024-02-26T16:17:01;11.40;99.90
21259;DHT22;10787;53.364;-1.480;2024-02-26T16:19:48;11.10;99.90
21259;DHT22;10787;53.364;-1.480;2024-02-26T16:22:32;12.00;99.90
21259;DHT22;10787;53.364;-1.480;2024-02-26T16:25:18;13.10;99.90
21259;DHT22;10787;53.364;-1.480;2024-02-26T16:28:03;13.50;99.90
21259;DHT22;10787;53.364;-1.480;2024-02-26T16:30:47;13.30;99.90
21259;DHT22;10787;53.364;-1.480;2024-02-26T16:33:31;12.70;99.90
21259;DHT22;10787;53.364;-1.480;2024-02-26T16:36:15;12.00;99.90
21259;DHT22;10787;53.364;-1.480;2024-02-26T16:38:59;11.40;99.90
21259;DHT22;10787;53.364;-1.480;2024-02-26T16:41:44;10.90;99.90
21259;DHT22;10787;53.364;-1.480;2024-02-26T16:44:28;10.40;99.90
21259;DHT22;10787;53.364;-1.480;2024-02-26T16:47:12;9.90;99.90
21259;DHT22;10787;53.364;-1.480;2024-02-26T16:49:57;9.50;99.90
21259;DHT22;10787;53.364;-1.480;2024-02-26T16:52:41;9.20;99.90
21259;DHT22;10787;53.364;-1.480;2024-02-26T16:55:25;8.90;99.90
21259;DHT22;10787;53.364;-1.480;2024-02-26T16:58:11;8.60;99.90
21259;DHT22;10787;53.364;-1.480;2024-02-26T17:00:55;8.60;99.90
21259;DHT22;10787;53.364;-1.480;2024-02-26T17:03:39;8.40;99.90
21259;DHT22;10787;53.364;-1.480;2024-02-26T17:06:23;8.20;99.90
21259;DHT22;10787;53.364;-1.480;2024-02-26T17:09:08;8.10;99.90
21259;DHT22;10787;53.364;-1.480;2024-02-26T17:11:53;7.90;99.90
21259;DHT22;10787;53.364;-1.480;2024-02-26T17:14:40;7.80;99.90
21259;DHT22;10787;53.364;-1.480;2024-02-26T17:17:24;7.70;99.90
21259;DHT22;10787;53.364;-1.480;2024-02-26T17:20:08;7.60;99.90
21259;DHT22;10787;53.364;-1.480;2024-02-26T17:22:53;7.70;99.90
21259;DHT22;10787;53.364;-1.480;2024-02-26T17:25:40;7.60;99.90